sensor_id;sensor_type;location;lat;lon;timestamp;P1;durP1;ratioP1;P2;durP2;ratioP2
72156;SDS011;60035;52.122;5.406;2023-02-03T00:01:50;12.75;;;1.73;;
72156;SDS011;60035;52.122;5.406;2023-02-03T00:04:16;10.27;;;2.10;;
72156;SDS011;60035;52.122;5.406;2023-02-03T00:06:43;9.77;;;1.90;;
72156;SDS011;60035;52.122;5.406;2023-02-03T00:09:10;13.50;;;2.10;;
72156;SDS011;60035;52.122;5.406;2023-02-03T00:11:36;8.30;;;1.55;;
72156;SDS011;60035;52.122;5.406;2023-02-03T00:14:03;12.98;;;1.83;;
72156;SDS011;60035;52.122;5.406;2023-02-03T00:16:30;13.57;;;2.20;;
72156;SDS011;60035;52.122;5.406;2023-02-03T00:18:57;10.38;;;2.00;;
72156;SDS011;60035;52.122;5.406;2023-02-03T00:21:23;10.32;;;1.90;;
72156;SDS011;60035;52.122;5.406;2023-02-03T00:23:52;11.90;;;2.22;;
72156;SDS011;60035;52.122;5.406;2023-02-03T00:26:19;12.13;;;2.15;;
72156;SDS011;60035;52.122;5.406;2023-02-03T00:28:46;10.60;;;2.20;;
72156;SDS011;60035;52.122;5.406;2023-02-03T00:31:14;14.02;;;2.92;;
72156;SDS011;60035;52.122;5.406;2023-02-03T00:33:42;10.93;;;2.38;;
72156;SDS011;60035;52.122;5.406;2023-02-03T00:36:09;13.52;;;2.28;;
72156;SDS011;60035;52.122;5.406;2023-02-03T00:38:35;8.13;;;2.05;;
72156;SDS011;60035;52.122;5.406;2023-02-03T00:41:02;11.02;;;1.92;;
72156;SDS011;60035;52.122;5.406;2023-02-03T00:43:29;7.32;;;1.88;;
72156;SDS011;60035;52.122;5.406;2023-02-03T00:45:55;8.43;;;2.08;;
72156;SDS011;60035;52.122;5.406;2023-02-03T00:48:22;12.27;;;2.47;;
72156;SDS011;60035;52.122;5.406;2023-02-03T00:50:48;12.80;;;1.95;;
72156;SDS011;60035;52.122;5.406;2023-02-03T00:53:15;12.00;;;1.90;;
72156;SDS011;60035;52.122;5.406;2023-02-03T00:55:42;12.13;;;2.22;;
72156;SDS011;60035;52.122;5.406;2023-02-03T00:58:09;12.65;;;2.90;;
72156;SDS011;60035;52.122;5.406;2023-02-03T01:00:35;11.35;;;2.22;;
72156;SDS011;60035;52.122;5.406;2023-02-03T01:03:02;7.97;;;1.77;;
72156;SDS011;60035;52.122;5.406;2023-02-03T01:05:28;7.03;;;1.45;;
72156;SDS011;60035;52.122;5.406;2023-02-03T01:07:55;7.40;;;1.92;;
72156;SDS011;60035;52.122;5.406;2023-02-03T01:10:21;6.78;;;1.70;;
72156;SDS011;60035;52.122;5.406;2023-02-03T01:12:48;10.70;;;1.48;;
72156;SDS011;60035;52.122;5.406;2023-02-03T01:15:14;9.55;;;1.60;;
72156;SDS011;60035;52.122;5.406;2023-02-03T01:17:41;7.75;;;1.80;;
72156;SDS011;60035;52.122;5.406;2023-02-03T01:20:07;10.40;;;1.73;;
72156;SDS011;60035;52.122;5.406;2023-02-03T01:22:37;7.30;;;1.70;;
72156;SDS011;60035;52.122;5.406;2023-02-03T01:25:03;10.70;;;2.30;;
72156;SDS011;60035;52.122;5.406;2023-02-03T01:27:31;9.70;;;1.88;;
72156;SDS011;60035;52.122;5.406;2023-02-03T01:29:58;8.35;;;1.13;;
72156;SDS011;60035;52.122;5.406;2023-02-03T01:32:25;9.18;;;1.73;;
72156;SDS011;60035;52.122;5.406;2023-02-03T01:34:52;8.82;;;2.03;;
72156;SDS011;60035;52.122;5.406;2023-02-03T01:37:18;10.98;;;1.73;;
72156;SDS011;60035;52.122;5.406;2023-02-03T01:39:45;8.77;;;1.63;;
72156;SDS011;60035;52.122;5.406;2023-02-03T01:42:12;12.73;;;1.73;;
72156;SDS011;60035;52.122;5.406;2023-02-03T01:47:25;9.45;;;2.00;;
72156;SDS011;60035;52.122;5.406;2023-02-03T01:50:20;10.70;;;1.80;;
72156;SDS011;60035;52.122;5.406;2023-02-03T01:52:53;11.27;;;1.98;;
72156;SDS011;60035;52.122;5.406;2023-02-03T01:55:24;11.13;;;1.58;;
72156;SDS011;60035;52.122;5.406;2023-02-03T01:58:04;11.43;;;1.63;;
72156;SDS011;60035;52.122;5.406;2023-02-03T02:00:36;7.55;;;1.63;;
72156;SDS011;60035;52.122;5.406;2023-02-03T02:03:03;7.95;;;1.23;;
72156;SDS011;60035;52.122;5.406;2023-02-03T02:05:35;11.50;;;1.45;;
72156;SDS011;60035;52.122;5.406;2023-02-03T02:08:06;8.43;;;1.33;;
72156;SDS011;60035;52.122;5.406;2023-02-03T02:10:34;6.72;;;1.30;;
72156;SDS011;60035;52.122;5.406;2023-02-03T02:13:01;13.98;;;1.85;;
72156;SDS011;60035;52.122;5.406;2023-02-03T02:27:25;11.20;;;1.90;;
72156;SDS011;60035;52.122;5.406;2023-02-03T02:41:28;8.63;;;1.63;;
72156;SDS011;60035;52.122;5.406;2023-02-03T02:44:19;8.00;;;1.50;;
72156;SDS011;60035;52.122;5.406;2023-02-03T02:46:53;8.43;;;1.23;;
72156;SDS011;60035;52.122;5.406;2023-02-03T02:52:15;7.45;;;1.40;;
72156;SDS011;60035;52.122;5.406;2023-02-03T02:54:46;7.70;;;1.17;;
72156;SDS011;60035;52.122;5.406;2023-02-03T02:57:16;8.52;;;1.52;;
72156;SDS011;60035;52.122;5.406;2023-02-03T02:59:45;6.78;;;1.35;;
72156;SDS011;60035;52.122;5.406;2023-02-03T03:02:13;5.93;;;1.33;;
72156;SDS011;60035;52.122;5.406;2023-02-03T03:04:40;7.35;;;0.93;;
72156;SDS011;60035;52.122;5.406;2023-02-03T03:07:19;7.63;;;1.23;;
72156;SDS011;60035;52.122;5.406;2023-02-03T03:09:55;7.90;;;1.27;;
72156;SDS011;60035;52.122;5.406;2023-02-03T03:12:28;7.72;;;1.55;;
72156;SDS011;60035;52.122;5.406;2023-02-03T03:15:00;9.82;;;1.55;;
72156;SDS011;60035;52.122;5.406;2023-02-03T03:17:33;5.93;;;1.50;;
72156;SDS011;60035;52.122;5.406;2023-02-03T03:20:07;11.43;;;1.85;;
72156;SDS011;60035;52.122;5.406;2023-02-03T03:22:52;7.50;;;1.13;;
72156;SDS011;60035;52.122;5.406;2023-02-03T03:25:26;7.32;;;1.25;;
72156;SDS011;60035;52.122;5.406;2023-02-03T03:28:01;6.05;;;1.27;;
72156;SDS011;60035;52.122;5.406;2023-02-03T03:30:32;6.57;;;1.25;;
72156;SDS011;60035;52.122;5.406;2023-02-03T03:33:01;9.70;;;1.27;;
72156;SDS011;60035;52.122;5.406;2023-02-03T03:35:36;7.43;;;1.55;;
72156;SDS011;60035;52.122;5.406;2023-02-03T03:38:45;6.50;;;1.00;;
72156;SDS011;60035;52.122;5.406;2023-02-03T03:41:18;3.90;;;1.08;;
72156;SDS011;60035;52.122;5.406;2023-02-03T03:43:51;10.68;;;1.23;;
72156;SDS011;60035;52.122;5.406;2023-02-03T03:46:27;7.97;;;1.50;;
72156;SDS011;60035;52.122;5.406;2023-02-03T03:48:58;6.47;;;1.35;;
72156;SDS011;60035;52.122;5.406;2023-02-03T03:53:56;6.55;;;1.02;;
72156;SDS011;60035;52.122;5.406;2023-02-03T03:56:29;5.65;;;1.27;;
72156;SDS011;60035;52.122;5.406;2023-02-03T03:59:00;8.18;;;1.10;;
72156;SDS011;60035;52.122;5.406;2023-02-03T04:01:29;9.70;;;1.48;;
72156;SDS011;60035;52.122;5.406;2023-02-03T04:03:59;7.45;;;1.50;;
72156;SDS011;60035;52.122;5.406;2023-02-03T04:06:30;6.85;;;1.02;;
72156;SDS011;60035;52.122;5.406;2023-02-03T04:08:57;5.35;;;1.13;;
72156;SDS011;60035;52.122;5.406;2023-02-03T04:11:23;12.18;;;1.23;;
72156;SDS011;60035;52.122;5.406;2023-02-03T04:14:08;4.50;;;1.13;;
72156;SDS011;60035;52.122;5.406;2023-02-03T04:16:35;8.93;;;1.10;;
72156;SDS011;60035;52.122;5.406;2023-02-03T04:19:01;5.75;;;1.33;;
72156;SDS011;60035;52.122;5.406;2023-02-03T04:21:28;5.53;;;1.20;;
72156;SDS011;60035;52.122;5.406;2023-02-03T04:23:54;4.65;;;1.10;;
72156;SDS011;60035;52.122;5.406;2023-02-03T04:26:22;6.13;;;1.10;;
72156;SDS011;60035;52.122;5.406;2023-02-03T04:28:49;4.85;;;1.20;;
72156;SDS011;60035;52.122;5.406;2023-02-03T04:31:16;4.55;;;0.98;;
72156;SDS011;60035;52.122;5.406;2023-02-03T04:33:42;6.82;;;1.02;;
72156;SDS011;60035;52.122;5.406;2023-02-03T04:36:09;3.72;;;0.63;;
72156;SDS011;60035;52.122;5.406;2023-02-03T04:38:35;6.13;;;1.20;;
72156;SDS011;60035;52.122;5.406;2023-02-03T04:41:02;5.18;;;0.77;;
72156;SDS011;60035;52.122;5.406;2023-02-03T04:43:28;6.28;;;0.75;;
72156;SDS011;60035;52.122;5.406;2023-02-03T04:45:55;4.22;;;0.82;;
72156;SDS011;60035;52.122;5.406;2023-02-03T04:48:24;6.75;;;1.13;;
72156;SDS011;60035;52.122;5.406;2023-02-03T04:50:50;3.60;;;0.80;;
72156;SDS011;60035;52.122;5.406;2023-02-03T04:53:17;6.18;;;0.88;;
72156;SDS011;60035;52.122;5.406;2023-02-03T04:55:46;3.70;;;0.75;;
72156;SDS011;60035;52.122;5.406;2023-02-03T04:58:13;3.03;;;0.73;;
72156;SDS011;60035;52.122;5.406;2023-02-03T05:00:40;7.10;;;1.20;;
72156;SDS011;60035;52.122;5.406;2023-02-03T05:03:07;2.97;;;0.85;;
72156;SDS011;60035;52.122;5.406;2023-02-03T05:05:33;6.68;;;1.30;;
72156;SDS011;60035;52.122;5.406;2023-02-03T05:08:00;7.30;;;1.25;;
72156;SDS011;60035;52.122;5.406;2023-02-03T05:10:26;6.53;;;1.15;;
72156;SDS011;60035;52.122;5.406;2023-02-03T05:12:53;2.95;;;0.70;;
72156;SDS011;60035;52.122;5.406;2023-02-03T05:15:19;4.05;;;1.08;;
72156;SDS011;60035;52.122;5.406;2023-02-03T05:17:46;5.38;;;0.90;;
72156;SDS011;60035;52.122;5.406;2023-02-03T05:20:12;6.15;;;1.00;;
72156;SDS011;60035;52.122;5.406;2023-02-03T05:22:39;6.80;;;0.98;;
72156;SDS011;60035;52.122;5.406;2023-02-03T05:25:05;4.85;;;1.33;;
72156;SDS011;60035;52.122;5.406;2023-02-03T05:27:32;5.82;;;1.05;;
72156;SDS011;60035;52.122;5.406;2023-02-03T05:29:58;7.43;;;1.02;;
72156;SDS011;60035;52.122;5.406;2023-02-03T05:32:25;4.80;;;0.90;;
72156;SDS011;60035;52.122;5.406;2023-02-03T05:34:52;6.82;;;1.15;;
72156;SDS011;60035;52.122;5.406;2023-02-03T05:37:18;5.18;;;1.27;;
72156;SDS011;60035;52.122;5.406;2023-02-03T05:39:44;5.13;;;0.90;;
72156;SDS011;60035;52.122;5.406;2023-02-03T05:42:11;7.47;;;0.85;;
72156;SDS011;60035;52.122;5.406;2023-02-03T05:44:38;6.40;;;0.82;;
72156;SDS011;60035;52.122;5.406;2023-02-03T05:47:04;5.68;;;0.77;;
72156;SDS011;60035;52.122;5.406;2023-02-03T05:49:31;7.68;;;1.13;;
72156;SDS011;60035;52.122;5.406;2023-02-03T05:51:57;5.88;;;1.30;;
72156;SDS011;60035;52.122;5.406;2023-02-03T05:54:24;9.10;;;1.52;;
72156;SDS011;60035;52.122;5.406;2023-02-03T05:56:50;8.10;;;1.15;;
72156;SDS011;60035;52.122;5.406;2023-02-03T05:59:17;4.70;;;0.73;;
72156;SDS011;60035;52.122;5.406;2023-02-03T06:01:43;5.90;;;1.13;;
72156;SDS011;60035;52.122;5.406;2023-02-03T06:04:10;9.35;;;1.55;;
72156;SDS011;60035;52.122;5.406;2023-02-03T06:06:37;8.25;;;1.25;;
72156;SDS011;60035;52.122;5.406;2023-02-03T06:09:04;5.28;;;0.98;;
72156;SDS011;60035;52.122;5.406;2023-02-03T06:11:32;5.55;;;1.23;;
72156;SDS011;60035;52.122;5.406;2023-02-03T06:14:01;7.45;;;0.70;;
72156;SDS011;60035;52.122;5.406;2023-02-03T06:16:28;7.40;;;1.10;;
72156;SDS011;60035;52.122;5.406;2023-02-03T06:18:55;9.85;;;1.73;;
72156;SDS011;60035;52.122;5.406;2023-02-03T06:21:26;6.78;;;1.10;;
72156;SDS011;60035;52.122;5.406;2023-02-03T06:23:53;4.22;;;0.85;;
72156;SDS011;60035;52.122;5.406;2023-02-03T06:26:21;8.23;;;1.08;;
72156;SDS011;60035;52.122;5.406;2023-02-03T06:28:49;5.38;;;1.05;;
72156;SDS011;60035;52.122;5.406;2023-02-03T06:31:16;5.28;;;1.25;;
72156;SDS011;60035;52.122;5.406;2023-02-03T06:33:43;11.25;;;1.45;;
72156;SDS011;60035;52.122;5.406;2023-02-03T06:36:09;6.55;;;1.40;;
72156;SDS011;60035;52.122;5.406;2023-02-03T06:38:36;10.02;;;1.10;;
72156;SDS011;60035;52.122;5.406;2023-02-03T06:41:02;10.57;;;1.05;;
72156;SDS011;60035;52.122;5.406;2023-02-03T06:43:29;7.78;;;0.95;;
72156;SDS011;60035;52.122;5.406;2023-02-03T06:45:55;9.05;;;1.15;;
72156;SDS011;60035;52.122;5.406;2023-02-03T06:48:22;5.72;;;1.10;;
72156;SDS011;60035;52.122;5.406;2023-02-03T06:50:49;5.35;;;1.20;;
72156;SDS011;60035;52.122;5.406;2023-02-03T06:53:15;6.55;;;1.05;;
72156;SDS011;60035;52.122;5.406;2023-02-03T06:55:42;6.72;;;1.10;;
72156;SDS011;60035;52.122;5.406;2023-02-03T06:58:08;7.38;;;1.25;;
72156;SDS011;60035;52.122;5.406;2023-02-03T07:00:35;7.75;;;1.20;;
72156;SDS011;60035;52.122;5.406;2023-02-03T07:03:02;10.00;;;1.08;;
72156;SDS011;60035;52.122;5.406;2023-02-03T07:05:28;7.15;;;1.30;;
72156;SDS011;60035;52.122;5.406;2023-02-03T07:07:55;7.10;;;1.30;;
72156;SDS011;60035;52.122;5.406;2023-02-03T07:10:21;8.57;;;1.52;;
72156;SDS011;60035;52.122;5.406;2023-02-03T07:12:48;7.70;;;1.10;;
72156;SDS011;60035;52.122;5.406;2023-02-03T07:15:16;4.55;;;1.00;;
72156;SDS011;60035;52.122;5.406;2023-02-03T07:17:42;6.10;;;1.10;;
72156;SDS011;60035;52.122;5.406;2023-02-03T07:20:09;5.97;;;1.10;;
72156;SDS011;60035;52.122;5.406;2023-02-03T07:22:36;7.68;;;1.17;;
72156;SDS011;60035;52.122;5.406;2023-02-03T07:25:03;9.35;;;1.35;;
72156;SDS011;60035;52.122;5.406;2023-02-03T07:27:30;6.32;;;1.73;;
72156;SDS011;60035;52.122;5.406;2023-02-03T07:29:57;8.30;;;1.52;;
72156;SDS011;60035;52.122;5.406;2023-02-03T07:32:23;9.88;;;2.22;;
72156;SDS011;60035;52.122;5.406;2023-02-03T07:34:49;7.13;;;1.23;;
72156;SDS011;60035;52.122;5.406;2023-02-03T07:37:16;6.40;;;1.10;;
72156;SDS011;60035;52.122;5.406;2023-02-03T07:39:42;5.38;;;1.00;;
72156;SDS011;60035;52.122;5.406;2023-02-03T07:42:09;7.45;;;1.27;;
72156;SDS011;60035;52.122;5.406;2023-02-03T07:44:35;7.40;;;1.23;;
72156;SDS011;60035;52.122;5.406;2023-02-03T07:47:02;9.82;;;1.42;;
72156;SDS011;60035;52.122;5.406;2023-02-03T07:49:28;8.95;;;1.13;;
72156;SDS011;60035;52.122;5.406;2023-02-03T07:51:55;11.25;;;1.67;;
72156;SDS011;60035;52.122;5.406;2023-02-03T07:54:21;5.80;;;1.48;;
72156;SDS011;60035;52.122;5.406;2023-02-03T07:56:48;11.90;;;1.77;;
72156;SDS011;60035;52.122;5.406;2023-02-03T07:59:15;10.05;;;1.30;;
72156;SDS011;60035;52.122;5.406;2023-02-03T08:01:42;12.27;;;1.80;;
72156;SDS011;60035;52.122;5.406;2023-02-03T08:04:09;6.15;;;1.35;;
72156;SDS011;60035;52.122;5.406;2023-02-03T08:06:38;7.45;;;1.25;;
72156;SDS011;60035;52.122;5.406;2023-02-03T08:09:04;9.00;;;1.10;;
72156;SDS011;60035;52.122;5.406;2023-02-03T08:11:31;10.70;;;1.52;;
72156;SDS011;60035;52.122;5.406;2023-02-03T08:13:57;8.38;;;1.58;;
72156;SDS011;60035;52.122;5.406;2023-02-03T08:16:24;12.80;;;1.67;;
72156;SDS011;60035;52.122;5.406;2023-02-03T08:18:50;6.50;;;1.45;;
72156;SDS011;60035;52.122;5.406;2023-02-03T08:21:17;8.40;;;1.45;;
72156;SDS011;60035;52.122;5.406;2023-02-03T08:23:43;6.40;;;1.23;;
72156;SDS011;60035;52.122;5.406;2023-02-03T08:26:10;7.43;;;1.05;;
72156;SDS011;60035;52.122;5.406;2023-02-03T08:28:36;8.40;;;1.50;;
72156;SDS011;60035;52.122;5.406;2023-02-03T08:31:08;7.85;;;1.23;;
72156;SDS011;60035;52.122;5.406;2023-02-03T08:33:37;6.45;;;1.00;;
72156;SDS011;60035;52.122;5.406;2023-02-03T08:36:04;7.55;;;1.38;;
72156;SDS011;60035;52.122;5.406;2023-02-03T08:38:31;5.47;;;0.90;;
72156;SDS011;60035;52.122;5.406;2023-02-03T08:40:58;8.30;;;1.25;;
72156;SDS011;60035;52.122;5.406;2023-02-03T08:43:24;6.50;;;1.30;;
72156;SDS011;60035;52.122;5.406;2023-02-03T08:45:50;4.32;;;1.00;;
72156;SDS011;60035;52.122;5.406;2023-02-03T08:48:17;11.98;;;1.95;;
72156;SDS011;60035;52.122;5.406;2023-02-03T08:50:43;5.55;;;1.27;;
72156;SDS011;60035;52.122;5.406;2023-02-03T08:53:17;8.50;;;1.35;;
72156;SDS011;60035;52.122;5.406;2023-02-03T08:55:44;5.38;;;1.10;;
72156;SDS011;60035;52.122;5.406;2023-02-03T08:58:10;5.57;;;1.25;;
72156;SDS011;60035;52.122;5.406;2023-02-03T09:00:36;8.15;;;1.50;;
72156;SDS011;60035;52.122;5.406;2023-02-03T09:03:06;5.00;;;1.30;;
72156;SDS011;60035;52.122;5.406;2023-02-03T09:05:33;14.85;;;1.77;;
72156;SDS011;60035;52.122;5.406;2023-02-03T09:07:59;7.78;;;1.23;;
72156;SDS011;60035;52.122;5.406;2023-02-03T09:10:26;9.02;;;1.20;;
72156;SDS011;60035;52.122;5.406;2023-02-03T09:12:53;9.07;;;1.75;;
72156;SDS011;60035;52.122;5.406;2023-02-03T09:15:19;6.28;;;1.42;;
72156;SDS011;60035;52.122;5.406;2023-02-03T09:17:46;9.05;;;1.25;;
72156;SDS011;60035;52.122;5.406;2023-02-03T09:20:12;8.45;;;1.35;;
72156;SDS011;60035;52.122;5.406;2023-02-03T09:22:40;8.10;;;1.83;;
72156;SDS011;60035;52.122;5.406;2023-02-03T09:25:07;8.80;;;1.25;;
72156;SDS011;60035;52.122;5.406;2023-02-03T09:27:33;12.15;;;1.30;;
72156;SDS011;60035;52.122;5.406;2023-02-03T09:30:00;6.45;;;1.45;;
72156;SDS011;60035;52.122;5.406;2023-02-03T09:32:26;9.25;;;1.33;;
72156;SDS011;60035;52.122;5.406;2023-02-03T09:34:53;11.30;;;1.27;;
72156;SDS011;60035;52.122;5.406;2023-02-03T09:37:19;7.60;;;1.38;;
72156;SDS011;60035;52.122;5.406;2023-02-03T09:39:46;8.13;;;1.27;;
72156;SDS011;60035;52.122;5.406;2023-02-03T09:45:14;5.90;;;1.58;;
72156;SDS011;60035;52.122;5.406;2023-02-03T09:47:47;11.73;;;1.60;;
72156;SDS011;60035;52.122;5.406;2023-02-03T09:50:19;11.10;;;1.45;;
72156;SDS011;60035;52.122;5.406;2023-02-03T09:52:48;8.48;;;1.55;;
72156;SDS011;60035;52.122;5.406;2023-02-03T09:58:03;5.53;;;1.35;;
72156;SDS011;60035;52.122;5.406;2023-02-03T10:00:43;9.75;;;1.88;;
72156;SDS011;60035;52.122;5.406;2023-02-03T10:06:12;4.82;;;0.90;;
72156;SDS011;60035;52.122;5.406;2023-02-03T10:17:29;6.00;;;1.20;;
72156;SDS011;60035;52.122;5.406;2023-02-03T10:22:47;11.25;;;1.25;;
72156;SDS011;60035;52.122;5.406;2023-02-03T10:28:00;6.30;;;0.98;;
72156;SDS011;60035;52.122;5.406;2023-02-03T10:30:31;6.20;;;1.25;;
72156;SDS011;60035;52.122;5.406;2023-02-03T10:33:11;9.02;;;1.27;;
72156;SDS011;60035;52.122;5.406;2023-02-03T10:35:49;4.65;;;0.85;;
72156;SDS011;60035;52.122;5.406;2023-02-03T10:38:32;9.30;;;1.73;;
72156;SDS011;60035;52.122;5.406;2023-02-03T10:41:19;5.60;;;1.25;;
72156;SDS011;60035;52.122;5.406;2023-02-03T10:43:48;7.15;;;0.90;;
72156;SDS011;60035;52.122;5.406;2023-02-03T10:46:31;9.85;;;1.55;;
72156;SDS011;60035;52.122;5.406;2023-02-03T10:49:00;5.43;;;1.02;;
72156;SDS011;60035;52.122;5.406;2023-02-03T10:51:29;8.85;;;1.25;;
72156;SDS011;60035;52.122;5.406;2023-02-03T10:54:01;8.70;;;1.30;;
72156;SDS011;60035;52.122;5.406;2023-02-03T10:56:31;5.38;;;1.20;;
72156;SDS011;60035;52.122;5.406;2023-02-03T10:59:02;5.38;;;1.10;;
72156;SDS011;60035;52.122;5.406;2023-02-03T11:04:00;8.38;;;1.20;;
72156;SDS011;60035;52.122;5.406;2023-02-03T11:06:31;5.88;;;1.42;;
72156;SDS011;60035;52.122;5.406;2023-02-03T11:08:59;7.70;;;1.42;;
72156;SDS011;60035;52.122;5.406;2023-02-03T11:11:27;11.20;;;1.67;;
72156;SDS011;60035;52.122;5.406;2023-02-03T11:16:32;14.63;;;1.88;;
72156;SDS011;60035;52.122;5.406;2023-02-03T11:19:02;7.60;;;1.65;;
72156;SDS011;60035;52.122;5.406;2023-02-03T11:21:32;11.65;;;1.48;;
72156;SDS011;60035;52.122;5.406;2023-02-03T11:24:08;6.40;;;1.33;;
72156;SDS011;60035;52.122;5.406;2023-02-03T11:26:46;9.38;;;1.35;;
72156;SDS011;60035;52.122;5.406;2023-02-03T11:29:29;6.65;;;0.95;;
72156;SDS011;60035;52.122;5.406;2023-02-03T11:32:03;7.32;;;1.40;;
72156;SDS011;60035;52.122;5.406;2023-02-03T11:34:43;4.25;;;1.05;;
72156;SDS011;60035;52.122;5.406;2023-02-03T11:37:30;8.50;;;1.15;;
72156;SDS011;60035;52.122;5.406;2023-02-03T11:42:37;8.50;;;1.25;;
72156;SDS011;60035;52.122;5.406;2023-02-03T11:45:26;6.93;;;1.52;;
72156;SDS011;60035;52.122;5.406;2023-02-03T11:47:54;6.13;;;1.13;;
72156;SDS011;60035;52.122;5.406;2023-02-03T11:50:34;7.90;;;1.52;;
72156;SDS011;60035;52.122;5.406;2023-02-03T11:56:03;11.10;;;1.33;;
72156;SDS011;60035;52.122;5.406;2023-02-03T12:01:56;10.52;;;1.67;;
72156;SDS011;60035;52.122;5.406;2023-02-03T12:07:35;8.48;;;1.48;;
72156;SDS011;60035;52.122;5.406;2023-02-03T12:10:15;7.05;;;1.40;;
72156;SDS011;60035;52.122;5.406;2023-02-03T12:15:55;7.38;;;1.30;;
72156;SDS011;60035;52.122;5.406;2023-02-03T12:30:21;8.40;;;1.27;;
72156;SDS011;60035;52.122;5.406;2023-02-03T12:32:55;5.28;;;1.30;;
72156;SDS011;60035;52.122;5.406;2023-02-03T12:35:37;7.25;;;1.20;;
72156;SDS011;60035;52.122;5.406;2023-02-03T12:38:33;6.97;;;1.50;;
72156;SDS011;60035;52.122;5.406;2023-02-03T12:41:06;6.18;;;1.13;;
72156;SDS011;60035;52.122;5.406;2023-02-03T12:43:39;8.10;;;1.58;;
72156;SDS011;60035;52.122;5.406;2023-02-03T12:46:18;7.05;;;1.50;;
72156;SDS011;60035;52.122;5.406;2023-02-03T12:49:03;9.75;;;1.83;;
72156;SDS011;60035;52.122;5.406;2023-02-03T12:51:41;9.38;;;1.60;;
72156;SDS011;60035;52.122;5.406;2023-02-03T12:54:38;7.25;;;1.58;;
72156;SDS011;60035;52.122;5.406;2023-02-03T12:57:20;7.53;;;1.58;;
72156;SDS011;60035;52.122;5.406;2023-02-03T13:00:05;9.00;;;1.98;;
72156;SDS011;60035;52.122;5.406;2023-02-03T13:05:29;11.65;;;2.25;;
72156;SDS011;60035;52.122;5.406;2023-02-03T13:10:49;7.43;;;1.63;;
72156;SDS011;60035;52.122;5.406;2023-02-03T13:13:22;8.15;;;2.10;;
72156;SDS011;60035;52.122;5.406;2023-02-03T13:15:54;11.35;;;1.95;;
72156;SDS011;60035;52.122;5.406;2023-02-03T13:18:26;10.48;;;1.92;;
72156;SDS011;60035;52.122;5.406;2023-02-03T13:20:57;10.38;;;1.70;;
72156;SDS011;60035;52.122;5.406;2023-02-03T13:23:24;10.05;;;1.83;;
72156;SDS011;60035;52.122;5.406;2023-02-03T13:43:05;8.95;;;1.70;;
72156;SDS011;60035;52.122;5.406;2023-02-03T13:45:39;12.77;;;2.20;;
72156;SDS011;60035;52.122;5.406;2023-02-03T13:48:12;11.00;;;2.10;;
72156;SDS011;60035;52.122;5.406;2023-02-03T13:50:39;13.07;;;2.10;;
72156;SDS011;60035;52.122;5.406;2023-02-03T13:53:07;10.27;;;2.03;;
72156;SDS011;60035;52.122;5.406;2023-02-03T13:55:42;9.13;;;1.83;;
72156;SDS011;60035;52.122;5.406;2023-02-03T14:05:45;9.82;;;1.90;;
72156;SDS011;60035;52.122;5.406;2023-02-03T14:08:57;14.80;;;2.45;;
72156;SDS011;60035;52.122;5.406;2023-02-03T14:24:36;16.48;;;2.42;;
72156;SDS011;60035;52.122;5.406;2023-02-03T14:27:15;18.95;;;2.83;;
72156;SDS011;60035;52.122;5.406;2023-02-03T14:29:44;13.48;;;1.92;;
72156;SDS011;60035;52.122;5.406;2023-02-03T14:32:11;14.10;;;2.08;;
72156;SDS011;60035;52.122;5.406;2023-02-03T14:34:42;14.20;;;2.47;;
72156;SDS011;60035;52.122;5.406;2023-02-03T14:37:16;15.85;;;2.42;;
72156;SDS011;60035;52.122;5.406;2023-02-03T14:45:59;19.58;;;3.03;;
72156;SDS011;60035;52.122;5.406;2023-02-03T14:48:34;12.45;;;2.05;;
72156;SDS011;60035;52.122;5.406;2023-02-03T14:59:59;18.90;;;2.75;;
72156;SDS011;60035;52.122;5.406;2023-02-03T15:05:40;14.93;;;1.88;;
72156;SDS011;60035;52.122;5.406;2023-02-03T15:10:58;13.77;;;2.25;;
72156;SDS011;60035;52.122;5.406;2023-02-03T15:13:26;15.68;;;2.30;;
72156;SDS011;60035;52.122;5.406;2023-02-03T15:15:55;18.08;;;2.85;;
72156;SDS011;60035;52.122;5.406;2023-02-03T15:18:29;16.17;;;2.42;;
72156;SDS011;60035;52.122;5.406;2023-02-03T15:20:57;16.77;;;2.38;;
72156;SDS011;60035;52.122;5.406;2023-02-03T15:23:28;13.55;;;2.13;;
72156;SDS011;60035;52.122;5.406;2023-02-03T15:26:08;15.23;;;1.80;;
72156;SDS011;60035;52.122;5.406;2023-02-03T15:28:38;18.10;;;2.63;;
72156;SDS011;60035;52.122;5.406;2023-02-03T15:31:12;13.23;;;2.00;;
72156;SDS011;60035;52.122;5.406;2023-02-03T15:33:46;10.88;;;2.22;;
72156;SDS011;60035;52.122;5.406;2023-02-03T15:36:16;18.95;;;1.98;;
72156;SDS011;60035;52.122;5.406;2023-02-03T15:38:48;15.18;;;1.85;;
72156;SDS011;60035;52.122;5.406;2023-02-03T15:41:21;22.42;;;2.28;;
72156;SDS011;60035;52.122;5.406;2023-02-03T15:43:50;17.45;;;2.22;;
72156;SDS011;60035;52.122;5.406;2023-02-03T15:46:34;12.80;;;1.85;;
72156;SDS011;60035;52.122;5.406;2023-02-03T15:49:28;15.65;;;2.55;;
72156;SDS011;60035;52.122;5.406;2023-02-03T15:52:03;14.40;;;2.35;;
72156;SDS011;60035;52.122;5.406;2023-02-03T15:54:37;24.30;;;2.33;;
72156;SDS011;60035;52.122;5.406;2023-02-03T15:57:18;16.83;;;1.90;;
72156;SDS011;60035;52.122;5.406;2023-02-03T15:59:57;17.67;;;2.40;;
72156;SDS011;60035;52.122;5.406;2023-02-03T16:02:27;15.77;;;2.30;;
72156;SDS011;60035;52.122;5.406;2023-02-03T16:04:56;11.80;;;1.90;;
72156;SDS011;60035;52.122;5.406;2023-02-03T16:07:31;15.25;;;2.33;;
72156;SDS011;60035;52.122;5.406;2023-02-03T16:09:58;15.20;;;2.00;;
72156;SDS011;60035;52.122;5.406;2023-02-03T16:12:31;12.73;;;1.85;;
72156;SDS011;60035;52.122;5.406;2023-02-03T16:14:59;13.38;;;1.98;;
72156;SDS011;60035;52.122;5.406;2023-02-03T16:17:36;16.00;;;2.65;;
72156;SDS011;60035;52.122;5.406;2023-02-03T16:22:43;14.35;;;2.22;;
72156;SDS011;60035;52.122;5.406;2023-02-03T16:25:14;19.13;;;2.40;;
72156;SDS011;60035;52.122;5.406;2023-02-03T16:27:56;16.08;;;2.33;;
72156;SDS011;60035;52.122;5.406;2023-02-03T16:33:39;16.75;;;2.92;;
72156;SDS011;60035;52.122;5.406;2023-02-03T16:39:13;12.77;;;2.53;;
72156;SDS011;60035;52.122;5.406;2023-02-03T16:42:00;15.27;;;3.10;;
72156;SDS011;60035;52.122;5.406;2023-02-03T16:44:57;12.98;;;2.70;;
72156;SDS011;60035;52.122;5.406;2023-02-03T16:47:43;17.42;;;2.88;;
72156;SDS011;60035;52.122;5.406;2023-02-03T16:50:29;15.98;;;3.03;;
72156;SDS011;60035;52.122;5.406;2023-02-03T16:53:17;16.90;;;3.00;;
72156;SDS011;60035;52.122;5.406;2023-02-03T16:55:45;14.65;;;2.05;;
72156;SDS011;60035;52.122;5.406;2023-02-03T16:58:13;21.85;;;3.15;;
72156;SDS011;60035;52.122;5.406;2023-02-03T17:00:40;17.63;;;2.58;;
72156;SDS011;60035;52.122;5.406;2023-02-03T17:03:10;17.33;;;2.25;;
72156;SDS011;60035;52.122;5.406;2023-02-03T17:05:39;13.55;;;2.03;;
72156;SDS011;60035;52.122;5.406;2023-02-03T17:08:06;17.42;;;2.83;;
72156;SDS011;60035;52.122;5.406;2023-02-03T17:10:34;19.92;;;3.08;;
72156;SDS011;60035;52.122;5.406;2023-02-03T17:13:04;21.77;;;3.28;;
72156;SDS011;60035;52.122;5.406;2023-02-03T17:15:33;16.33;;;2.92;;
72156;SDS011;60035;52.122;5.406;2023-02-03T17:18:04;17.60;;;2.42;;
72156;SDS011;60035;52.122;5.406;2023-02-03T17:20:31;20.33;;;3.17;;
72156;SDS011;60035;52.122;5.406;2023-02-03T17:22:57;17.27;;;2.33;;
72156;SDS011;60035;52.122;5.406;2023-02-03T17:25:24;17.25;;;2.17;;
72156;SDS011;60035;52.122;5.406;2023-02-03T17:27:50;21.17;;;2.13;;
72156;SDS011;60035;52.122;5.406;2023-02-03T17:30:17;19.52;;;2.88;;
72156;SDS011;60035;52.122;5.406;2023-02-03T17:32:43;17.85;;;2.60;;
72156;SDS011;60035;52.122;5.406;2023-02-03T17:35:10;14.85;;;2.65;;
72156;SDS011;60035;52.122;5.406;2023-02-03T17:37:36;17.38;;;2.30;;
72156;SDS011;60035;52.122;5.406;2023-02-03T17:40:03;19.02;;;2.88;;
72156;SDS011;60035;52.122;5.406;2023-02-03T17:42:47;17.35;;;2.60;;